sensor_id;sensor_type;location;lat;lon;timestamp;P1;durP1;ratioP1;P2;durP2;ratioP2
9661;SDS011;24982;52.344;12.990;2023-10-13T00:01:35;10.55;;;6.13;;
9661;SDS011;24982;52.344;12.990;2023-10-13T00:04:38;7.50;;;6.00;;
9661;SDS011;24982;52.344;12.990;2023-10-13T00:07:41;9.65;;;6.35;;
9661;SDS011;24982;52.344;12.990;2023-10-13T00:10:43;8.95;;;6.43;;
9661;SDS011;24982;52.344;12.990;2023-10-13T00:13:45;11.57;;;6.10;;
9661;SDS011;24982;52.344;12.990;2023-10-13T00:16:50;7.18;;;5.80;;
9661;SDS011;24982;52.344;12.990;2023-10-13T00:20:05;8.65;;;6.18;;
9661;SDS011;24982;52.344;12.990;2023-10-13T00:23:14;11.07;;;5.85;;
9661;SDS011;24982;52.344;12.990;2023-10-13T00:26:21;7.75;;;6.05;;
9661;SDS011;24982;52.344;12.990;2023-10-13T00:29:28;10.60;;;5.85;;
9661;SDS011;24982;52.344;12.990;2023-10-13T00:32:37;7.20;;;5.60;;
9661;SDS011;24982;52.344;12.990;2023-10-13T00:35:43;6.15;;;5.50;;
9661;SDS011;24982;52.344;12.990;2023-10-13T00:38:46;7.65;;;5.00;;
9661;SDS011;24982;52.344;12.990;2023-10-13T00:41:49;7.50;;;5.65;;
9661;SDS011;24982;52.344;12.990;2023-10-13T00:44:52;8.95;;;5.15;;
9661;SDS011;24982;52.344;12.990;2023-10-13T00:47:55;5.70;;;5.05;;
9661;SDS011;24982;52.344;12.990;2023-10-13T00:50:57;11.07;;;4.75;;
9661;SDS011;24982;52.344;12.990;2023-10-13T00:54:05;6.53;;;4.20;;
9661;SDS011;24982;52.344;12.990;2023-10-13T00:57:11;5.47;;;4.20;;
9661;SDS011;24982;52.344;12.990;2023-10-13T01:00:26;6.38;;;4.18;;
9661;SDS011;24982;52.344;12.990;2023-10-13T01:03:28;5.50;;;4.00;;
9661;SDS011;24982;52.344;12.990;2023-10-13T01:06:31;7.03;;;4.22;;
9661;SDS011;24982;52.344;12.990;2023-10-13T01:09:41;5.38;;;3.97;;
9661;SDS011;24982;52.344;12.990;2023-10-13T01:12:43;6.93;;;3.70;;
9661;SDS011;24982;52.344;12.990;2023-10-13T01:15:46;5.22;;;4.20;;
9661;SDS011;24982;52.344;12.990;2023-10-13T01:18:48;7.13;;;3.65;;
9661;SDS011;24982;52.344;12.990;2023-10-13T01:21:50;5.45;;;3.97;;
9661;SDS011;24982;52.344;12.990;2023-10-13T01:24:58;6.43;;;3.97;;
9661;SDS011;24982;52.344;12.990;2023-10-13T01:28:07;4.75;;;4.18;;
9661;SDS011;24982;52.344;12.990;2023-10-13T01:31:09;4.78;;;3.95;;
9661;SDS011;24982;52.344;12.990;2023-10-13T01:34:12;6.53;;;5.20;;
9661;SDS011;24982;52.344;12.990;2023-10-13T01:37:19;6.53;;;4.13;;
9661;SDS011;24982;52.344;12.990;2023-10-13T01:40:23;5.68;;;4.40;;
9661;SDS011;24982;52.344;12.990;2023-10-13T01:43:29;6.07;;;4.82;;
9661;SDS011;24982;52.344;12.990;2023-10-13T01:46:31;7.05;;;5.57;;
9661;SDS011;24982;52.344;12.990;2023-10-13T01:49:37;6.82;;;5.10;;
9661;SDS011;24982;52.344;12.990;2023-10-13T01:52:42;6.72;;;5.35;;
9661;SDS011;24982;52.344;12.990;2023-10-13T01:55:45;6.88;;;5.65;;
9661;SDS011;24982;52.344;12.990;2023-10-13T01:58:46;6.38;;;5.13;;
9661;SDS011;24982;52.344;12.990;2023-10-13T02:01:48;7.13;;;5.50;;
9661;SDS011;24982;52.344;12.990;2023-10-13T02:04:51;8.02;;;5.30;;
9661;SDS011;24982;52.344;12.990;2023-10-13T02:07:57;8.48;;;5.50;;
9661;SDS011;24982;52.344;12.990;2023-10-13T02:11:03;6.63;;;5.45;;
9661;SDS011;24982;52.344;12.990;2023-10-13T02:14:07;7.28;;;6.18;;
9661;SDS011;24982;52.344;12.990;2023-10-13T02:17:12;6.20;;;5.63;;
9661;SDS011;24982;52.344;12.990;2023-10-13T02:20:13;8.05;;;5.78;;
9661;SDS011;24982;52.344;12.990;2023-10-13T02:23:16;7.13;;;5.88;;
9661;SDS011;24982;52.344;12.990;2023-10-13T02:26:20;9.63;;;6.38;;
9661;SDS011;24982;52.344;12.990;2023-10-13T02:29:30;8.18;;;6.95;;
9661;SDS011;24982;52.344;12.990;2023-10-13T02:32:39;9.82;;;6.63;;
9661;SDS011;24982;52.344;12.990;2023-10-13T02:35:46;8.77;;;7.05;;
9661;SDS011;24982;52.344;12.990;2023-10-13T02:38:53;8.68;;;6.95;;
9661;SDS011;24982;52.344;12.990;2023-10-13T02:41:59;9.98;;;7.00;;
9661;SDS011;24982;52.344;12.990;2023-10-13T02:45:01;7.88;;;7.07;;
9661;SDS011;24982;52.344;12.990;2023-10-13T02:48:04;10.07;;;7.05;;
9661;SDS011;24982;52.344;12.990;2023-10-13T02:51:17;11.95;;;7.82;;
9661;SDS011;24982;52.344;12.990;2023-10-13T02:54:19;10.50;;;7.25;;
9661;SDS011;24982;52.344;12.990;2023-10-13T02:57:22;10.02;;;7.25;;
9661;SDS011;24982;52.344;12.990;2023-10-13T03:00:25;10.23;;;7.63;;
9661;SDS011;24982;52.344;12.990;2023-10-13T03:03:32;8.25;;;6.97;;
9661;SDS011;24982;52.344;12.990;2023-10-13T03:06:34;10.40;;;7.50;;
9661;SDS011;24982;52.344;12.990;2023-10-13T03:09:36;9.07;;;7.20;;
9661;SDS011;24982;52.344;12.990;2023-10-13T03:12:39;15.55;;;7.60;;
9661;SDS011;24982;52.344;12.990;2023-10-13T03:15:42;10.43;;;6.82;;
9661;SDS011;24982;52.344;12.990;2023-10-13T03:18:47;10.07;;;7.25;;
9661;SDS011;24982;52.344;12.990;2023-10-13T03:21:56;9.77;;;7.45;;
9661;SDS011;24982;52.344;12.990;2023-10-13T03:25:06;9.82;;;7.65;;
9661;SDS011;24982;52.344;12.990;2023-10-13T03:28:15;10.20;;;7.95;;
9661;SDS011;24982;52.344;12.990;2023-10-13T03:31:21;13.13;;;7.40;;
9661;SDS011;24982;52.344;12.990;2023-10-13T03:34:28;8.73;;;7.20;;
9661;SDS011;24982;52.344;12.990;2023-10-13T03:37:30;10.60;;;6.38;;
9661;SDS011;24982;52.344;12.990;2023-10-13T03:40:39;9.77;;;7.32;;
9661;SDS011;24982;52.344;12.990;2023-10-13T03:43:42;11.20;;;7.50;;
9661;SDS011;24982;52.344;12.990;2023-10-13T03:46:50;12.43;;;7.45;;
9661;SDS011;24982;52.344;12.990;2023-10-13T03:49:54;12.00;;;8.95;;
9661;SDS011;24982;52.344;12.990;2023-10-13T03:53:15;12.13;;;8.32;;
9661;SDS011;24982;52.344;12.990;2023-10-13T03:56:18;17.38;;;9.30;;
9661;SDS011;24982;52.344;12.990;2023-10-13T03:59:27;11.43;;;8.88;;
9661;SDS011;24982;52.344;12.990;2023-10-13T04:02:36;14.88;;;8.20;;
9661;SDS011;24982;52.344;12.990;2023-10-13T04:05:37;15.77;;;8.95;;
9661;SDS011;24982;52.344;12.990;2023-10-13T04:08:42;11.43;;;8.52;;
9661;SDS011;24982;52.344;12.990;2023-10-13T04:11:49;13.02;;;8.80;;
9661;SDS011;24982;52.344;12.990;2023-10-13T04:15:16;11.05;;;8.85;;
9661;SDS011;24982;52.344;12.990;2023-10-13T04:18:22;12.30;;;9.02;;
9661;SDS011;24982;52.344;12.990;2023-10-13T04:21:34;14.57;;;8.95;;
9661;SDS011;24982;52.344;12.990;2023-10-13T04:24:55;12.60;;;9.00;;
9661;SDS011;24982;52.344;12.990;2023-10-13T04:28:23;13.18;;;8.40;;
9661;SDS011;24982;52.344;12.990;2023-10-13T04:31:36;11.15;;;8.38;;
9661;SDS011;24982;52.344;12.990;2023-10-13T04:34:57;10.77;;;9.15;;
9661;SDS011;24982;52.344;12.990;2023-10-13T04:38:08;14.07;;;8.90;;
9661;SDS011;24982;52.344;12.990;2023-10-13T04:41:19;12.10;;;9.20;;
9661;SDS011;24982;52.344;12.990;2023-10-13T04:44:23;11.73;;;9.13;;
9661;SDS011;24982;52.344;12.990;2023-10-13T04:47:44;13.88;;;8.50;;
9661;SDS011;24982;52.344;12.990;2023-10-13T04:51:00;13.15;;;8.82;;
9661;SDS011;24982;52.344;12.990;2023-10-13T04:54:20;12.80;;;8.63;;
9661;SDS011;24982;52.344;12.990;2023-10-13T04:57:33;11.45;;;8.50;;
9661;SDS011;24982;52.344;12.990;2023-10-13T05:00:35;12.55;;;8.73;;
9661;SDS011;24982;52.344;12.990;2023-10-13T05:04:17;12.82;;;8.82;;
9661;SDS011;24982;52.344;12.990;2023-10-13T05:07:22;16.05;;;9.27;;
9661;SDS011;24982;52.344;12.990;2023-10-13T05:10:42;11.70;;;9.15;;
9661;SDS011;24982;52.344;12.990;2023-10-13T05:14:01;10.38;;;9.15;;
9661;SDS011;24982;52.344;12.990;2023-10-13T05:17:21;13.32;;;10.00;;
9661;SDS011;24982;52.344;12.990;2023-10-13T05:20:41;12.32;;;8.65;;
9661;SDS011;24982;52.344;12.990;2023-10-13T05:24:01;11.95;;;8.98;;
9661;SDS011;24982;52.344;12.990;2023-10-13T05:27:20;13.98;;;9.75;;
9661;SDS011;24982;52.344;12.990;2023-10-13T05:30:40;12.43;;;9.85;;
9661;SDS011;24982;52.344;12.990;2023-10-13T05:33:59;14.38;;;9.25;;
9661;SDS011;24982;52.344;12.990;2023-10-13T05:37:20;13.07;;;9.23;;
9661;SDS011;24982;52.344;12.990;2023-10-13T05:40:40;11.60;;;8.95;;
9661;SDS011;24982;52.344;12.990;2023-10-13T05:44:09;13.93;;;10.27;;
9661;SDS011;24982;52.344;12.990;2023-10-13T05:47:28;11.98;;;9.38;;
9661;SDS011;24982;52.344;12.990;2023-10-13T05:50:59;12.07;;;9.93;;
9661;SDS011;24982;52.344;12.990;2023-10-13T05:54:16;12.60;;;9.63;;
9661;SDS011;24982;52.344;12.990;2023-10-13T05:57:35;12.27;;;9.15;;
9661;SDS011;24982;52.344;12.990;2023-10-13T06:00:55;11.45;;;8.73;;
9661;SDS011;24982;52.344;12.990;2023-10-13T06:04:15;10.07;;;9.00;;
9661;SDS011;24982;52.344;12.990;2023-10-13T06:07:33;11.90;;;9.57;;
9661;SDS011;24982;52.344;12.990;2023-10-13T06:11:01;14.68;;;9.32;;
9661;SDS011;24982;52.344;12.990;2023-10-13T06:14:21;10.15;;;8.80;;
9661;SDS011;24982;52.344;12.990;2023-10-13T06:17:41;12.30;;;9.70;;
9661;SDS011;24982;52.344;12.990;2023-10-13T06:21:01;13.88;;;8.80;;
9661;SDS011;24982;52.344;12.990;2023-10-13T06:24:20;12.13;;;9.98;;
9661;SDS011;24982;52.344;12.990;2023-10-13T06:27:40;14.60;;;10.82;;
9661;SDS011;24982;52.344;12.990;2023-10-13T06:31:01;14.50;;;11.50;;
9661;SDS011;24982;52.344;12.990;2023-10-13T06:34:06;16.42;;;11.43;;
9661;SDS011;24982;52.344;12.990;2023-10-13T06:37:08;18.33;;;12.63;;
9661;SDS011;24982;52.344;12.990;2023-10-13T06:40:22;14.85;;;12.07;;
9661;SDS011;24982;52.344;12.990;2023-10-13T06:43:34;18.83;;;13.18;;
9661;SDS011;24982;52.344;12.990;2023-10-13T06:46:40;20.67;;;12.85;;
9661;SDS011;24982;52.344;12.990;2023-10-13T06:49:42;18.02;;;12.50;;
9661;SDS011;24982;52.344;12.990;2023-10-13T06:52:44;18.15;;;12.68;;
9661;SDS011;24982;52.344;12.990;2023-10-13T06:55:47;15.27;;;12.18;;
9661;SDS011;24982;52.344;12.990;2023-10-13T06:58:54;14.55;;;11.25;;
9661;SDS011;24982;52.344;12.990;2023-10-13T07:01:59;14.88;;;12.13;;
9661;SDS011;24982;52.344;12.990;2023-10-13T07:05:05;17.60;;;11.68;;
9661;SDS011;24982;52.344;12.990;2023-10-13T07:08:11;17.13;;;10.70;;
9661;SDS011;24982;52.344;12.990;2023-10-13T07:11:14;15.15;;;11.27;;
9661;SDS011;24982;52.344;12.990;2023-10-13T07:14:20;16.63;;;11.05;;
9661;SDS011;24982;52.344;12.990;2023-10-13T07:17:23;14.40;;;10.57;;
9661;SDS011;24982;52.344;12.990;2023-10-13T07:20:25;12.95;;;11.02;;
9661;SDS011;24982;52.344;12.990;2023-10-13T07:23:34;14.55;;;10.50;;
9661;SDS011;24982;52.344;12.990;2023-10-13T07:26:37;13.68;;;10.23;;
9661;SDS011;24982;52.344;12.990;2023-10-13T07:29:44;14.98;;;10.65;;
9661;SDS011;24982;52.344;12.990;2023-10-13T07:32:46;11.50;;;9.70;;
9661;SDS011;24982;52.344;12.990;2023-10-13T07:35:59;15.75;;;10.00;;
9661;SDS011;24982;52.344;12.990;2023-10-13T07:39:10;11.60;;;9.70;;
9661;SDS011;24982;52.344;12.990;2023-10-13T07:42:21;11.20;;;9.65;;
9661;SDS011;24982;52.344;12.990;2023-10-13T07:45:25;13.23;;;9.95;;
9661;SDS011;24982;52.344;12.990;2023-10-13T07:48:36;12.15;;;9.25;;
9661;SDS011;24982;52.344;12.990;2023-10-13T07:51:38;12.07;;;8.70;;
9661;SDS011;24982;52.344;12.990;2023-10-13T07:54:44;12.27;;;8.60;;
9661;SDS011;24982;52.344;12.990;2023-10-13T07:57:49;10.60;;;8.30;;
9661;SDS011;24982;52.344;12.990;2023-10-13T08:01:00;13.80;;;8.85;;
9661;SDS011;24982;52.344;12.990;2023-10-13T08:04:08;12.25;;;8.90;;
9661;SDS011;24982;52.344;12.990;2023-10-13T08:07:12;12.25;;;8.60;;
9661;SDS011;24982;52.344;12.990;2023-10-13T08:10:14;8.73;;;7.90;;
9661;SDS011;24982;52.344;12.990;2023-10-13T08:13:17;9.60;;;7.78;;
9661;SDS011;24982;52.344;12.990;2023-10-13T08:16:22;8.93;;;7.30;;
9661;SDS011;24982;52.344;12.990;2023-10-13T08:19:44;9.02;;;7.90;;
9661;SDS011;24982;52.344;12.990;2023-10-13T08:22:46;10.45;;;7.78;;
9661;SDS011;24982;52.344;12.990;2023-10-13T08:25:49;10.35;;;7.90;;
9661;SDS011;24982;52.344;12.990;2023-10-13T08:29:08;9.07;;;7.68;;
9661;SDS011;24982;52.344;12.990;2023-10-13T08:32:25;11.75;;;8.30;;
9661;SDS011;24982;52.344;12.990;2023-10-13T08:35:44;9.18;;;7.47;;
9661;SDS011;24982;52.344;12.990;2023-10-13T08:39:06;8.13;;;7.13;;
9661;SDS011;24982;52.344;12.990;2023-10-13T08:42:38;8.40;;;7.38;;
9661;SDS011;24982;52.344;12.990;2023-10-13T08:45:53;11.20;;;7.78;;
9661;SDS011;24982;52.344;12.990;2023-10-13T08:49:08;8.85;;;7.55;;
9661;SDS011;24982;52.344;12.990;2023-10-13T08:52:17;9.63;;;6.85;;
9661;SDS011;24982;52.344;12.990;2023-10-13T08:55:49;8.73;;;6.97;;
9661;SDS011;24982;52.344;12.990;2023-10-13T08:59:02;7.95;;;6.55;;
9661;SDS011;24982;52.344;12.990;2023-10-13T09:02:13;10.45;;;6.80;;
9661;SDS011;24982;52.344;12.990;2023-10-13T09:05:19;7.13;;;6.43;;
9661;SDS011;24982;52.344;12.990;2023-10-13T09:08:38;7.47;;;6.32;;
9661;SDS011;24982;52.344;12.990;2023-10-13T09:12:10;7.03;;;5.80;;
9661;SDS011;24982;52.344;12.990;2023-10-13T09:15:11;9.27;;;6.30;;
9661;SDS011;24982;52.344;12.990;2023-10-13T09:18:42;9.95;;;5.95;;
9661;SDS011;24982;52.344;12.990;2023-10-13T09:21:53;8.63;;;6.00;;
9661;SDS011;24982;52.344;12.990;2023-10-13T09:24:58;6.50;;;5.90;;
9661;SDS011;24982;52.344;12.990;2023-10-13T09:28:00;6.38;;;5.70;;
9661;SDS011;24982;52.344;12.990;2023-10-13T09:31:02;9.68;;;5.72;;
9661;SDS011;24982;52.344;12.990;2023-10-13T09:34:07;9.15;;;6.18;;
9661;SDS011;24982;52.344;12.990;2023-10-13T09:37:11;8.18;;;5.50;;
9661;SDS011;24982;52.344;12.990;2023-10-13T09:40:20;7.25;;;5.95;;
9661;SDS011;24982;52.344;12.990;2023-10-13T09:43:38;6.03;;;5.43;;
9661;SDS011;24982;52.344;12.990;2023-10-13T09:46:43;7.45;;;5.72;;
9661;SDS011;24982;52.344;12.990;2023-10-13T09:49:46;7.63;;;5.85;;
9661;SDS011;24982;52.344;12.990;2023-10-13T09:52:52;6.10;;;5.60;;
9661;SDS011;24982;52.344;12.990;2023-10-13T09:55:58;6.50;;;5.90;;
9661;SDS011;24982;52.344;12.990;2023-10-13T09:59:14;6.53;;;5.82;;
9661;SDS011;24982;52.344;12.990;2023-10-13T10:02:20;6.70;;;5.63;;
9661;SDS011;24982;52.344;12.990;2023-10-13T10:05:25;8.80;;;6.40;;
9661;SDS011;24982;52.344;12.990;2023-10-13T10:08:29;8.90;;;6.20;;
9661;SDS011;24982;52.344;12.990;2023-10-13T10:15:19;8.02;;;6.47;;
9661;SDS011;24982;52.344;12.990;2023-10-13T10:18:31;6.90;;;6.15;;
9661;SDS011;24982;52.344;12.990;2023-10-13T10:21:33;7.35;;;6.38;;
9661;SDS011;24982;52.344;12.990;2023-10-13T10:24:37;11.68;;;6.72;;
9661;SDS011;24982;52.344;12.990;2023-10-13T10:27:39;9.43;;;6.47;;
9661;SDS011;24982;52.344;12.990;2023-10-13T10:30:41;8.90;;;6.80;;
9661;SDS011;24982;52.344;12.990;2023-10-13T10:33:44;10.27;;;6.95;;
9661;SDS011;24982;52.344;12.990;2023-10-13T10:36:47;8.70;;;6.88;;
9661;SDS011;24982;52.344;12.990;2023-10-13T10:39:55;8.38;;;6.70;;
9661;SDS011;24982;52.344;12.990;2023-10-13T10:42:59;10.18;;;7.13;;
9661;SDS011;24982;52.344;12.990;2023-10-13T10:46:08;7.85;;;6.65;;
9661;SDS011;24982;52.344;12.990;2023-10-13T10:49:12;7.95;;;6.78;;
9661;SDS011;24982;52.344;12.990;2023-10-13T10:52:18;10.93;;;7.07;;
9661;SDS011;24982;52.344;12.990;2023-10-13T10:55:22;8.40;;;7.30;;
9661;SDS011;24982;52.344;12.990;2023-10-13T10:58:32;9.73;;;7.43;;
9661;SDS011;24982;52.344;12.990;2023-10-13T11:01:44;7.93;;;6.55;;
9661;SDS011;24982;52.344;12.990;2023-10-13T11:04:51;9.25;;;7.18;;
9661;SDS011;24982;52.344;12.990;2023-10-13T11:07:54;8.93;;;6.97;;
9661;SDS011;24982;52.344;12.990;2023-10-13T11:10:57;7.00;;;6.22;;
9661;SDS011;24982;52.344;12.990;2023-10-13T11:14:01;8.02;;;6.43;;
9661;SDS011;24982;52.344;12.990;2023-10-13T11:17:22;8.13;;;5.90;;
9661;SDS011;24982;52.344;12.990;2023-10-13T11:20:26;7.18;;;5.60;;
9661;SDS011;24982;52.344;12.990;2023-10-13T11:23:33;8.85;;;6.40;;
9661;SDS011;24982;52.344;12.990;2023-10-13T11:26:38;7.95;;;5.78;;
9661;SDS011;24982;52.344;12.990;2023-10-13T11:29:49;9.43;;;6.10;;
9661;SDS011;24982;52.344;12.990;2023-10-13T11:32:56;11.73;;;6.30;;
9661;SDS011;24982;52.344;12.990;2023-10-13T11:35:59;8.65;;;6.35;;
9661;SDS011;24982;52.344;12.990;2023-10-13T11:39:03;11.77;;;6.03;;
9661;SDS011;24982;52.344;12.990;2023-10-13T11:42:09;9.00;;;6.25;;
9661;SDS011;24982;52.344;12.990;2023-10-13T11:45:11;8.15;;;5.78;;
9661;SDS011;24982;52.344;12.990;2023-10-13T11:48:29;10.32;;;6.07;;
9661;SDS011;24982;52.344;12.990;2023-10-13T11:51:34;10.18;;;5.60;;
9661;SDS011;24982;52.344;12.990;2023-10-13T11:54:38;10.07;;;5.82;;
9661;SDS011;24982;52.344;12.990;2023-10-13T11:57:43;8.70;;;6.10;;
9661;SDS011;24982;52.344;12.990;2023-10-13T12:00:45;6.53;;;5.22;;
9661;SDS011;24982;52.344;12.990;2023-10-13T12:04:08;13.95;;;6.38;;
9661;SDS011;24982;52.344;12.990;2023-10-13T12:07:28;9.27;;;5.60;;
9661;SDS011;24982;52.344;12.990;2023-10-13T12:10:45;8.90;;;6.00;;
9661;SDS011;24982;52.344;12.990;2023-10-13T12:14:01;8.90;;;5.30;;
9661;SDS011;24982;52.344;12.990;2023-10-13T12:17:12;12.40;;;6.28;;
9661;SDS011;24982;52.344;12.990;2023-10-13T12:20:18;6.20;;;5.22;;
9661;SDS011;24982;52.344;12.990;2023-10-13T12:23:32;12.02;;;5.75;;
9661;SDS011;24982;52.344;12.990;2023-10-13T12:26:36;10.30;;;5.35;;
9661;SDS011;24982;52.344;12.990;2023-10-13T12:29:43;8.93;;;5.47;;
9661;SDS011;24982;52.344;12.990;2023-10-13T12:32:46;13.68;;;6.13;;
9661;SDS011;24982;52.344;12.990;2023-10-13T12:35:58;10.55;;;5.05;;
9661;SDS011;24982;52.344;12.990;2023-10-13T12:39:30;10.98;;;6.10;;
9661;SDS011;24982;52.344;12.990;2023-10-13T12:42:50;9.80;;;5.30;;
9661;SDS011;24982;52.344;12.990;2023-10-13T12:46:11;12.85;;;5.05;;
9661;SDS011;24982;52.344;12.990;2023-10-13T12:49:32;10.02;;;5.20;;
9661;SDS011;24982;52.344;12.990;2023-10-13T12:52:51;8.63;;;4.95;;
9661;SDS011;24982;52.344;12.990;2023-10-13T12:55:53;10.43;;;5.85;;
9661;SDS011;24982;52.344;12.990;2023-10-13T12:58:56;10.45;;;5.60;;
9661;SDS011;24982;52.344;12.990;2023-10-13T13:01:59;11.40;;;5.85;;
9661;SDS011;24982;52.344;12.990;2023-10-13T13:05:06;11.68;;;5.60;;
9661;SDS011;24982;52.344;12.990;2023-10-13T13:08:11;12.82;;;5.93;;
9661;SDS011;24982;52.344;12.990;2023-10-13T13:11:22;8.38;;;5.70;;
9661;SDS011;24982;52.344;12.990;2023-10-13T13:14:24;15.43;;;5.82;;
9661;SDS011;24982;52.344;12.990;2023-10-13T13:17:30;13.00;;;5.38;;
9661;SDS011;24982;52.344;12.990;2023-10-13T13:20:32;9.43;;;5.30;;
9661;SDS011;24982;52.344;12.990;2023-10-13T13:23:39;11.80;;;5.50;;
9661;SDS011;24982;52.344;12.990;2023-10-13T13:26:41;10.52;;;5.85;;
9661;SDS011;24982;52.344;12.990;2023-10-13T13:29:43;10.15;;;5.78;;
9661;SDS011;24982;52.344;12.990;2023-10-13T13:32:47;13.15;;;5.75;;
9661;SDS011;24982;52.344;12.990;2023-10-13T13:35:53;11.60;;;6.15;;
9661;SDS011;24982;52.344;12.990;2023-10-13T13:38:55;9.48;;;5.57;;
9661;SDS011;24982;52.344;12.990;2023-10-13T13:42:00;10.52;;;5.60;;
9661;SDS011;24982;52.344;12.990;2023-10-13T13:45:03;11.73;;;5.55;;
9661;SDS011;24982;52.344;12.990;2023-10-13T13:48:10;13.15;;;5.68;;
9661;SDS011;24982;52.344;12.990;2023-10-13T13:51:15;12.98;;;5.53;;
9661;SDS011;24982;52.344;12.990;2023-10-13T13:54:19;10.48;;;5.63;;
9661;SDS011;24982;52.344;12.990;2023-10-13T13:57:22;10.20;;;5.15;;
9661;SDS011;24982;52.344;12.990;2023-10-13T14:00:24;10.02;;;5.70;;
9661;SDS011;24982;52.344;12.990;2023-10-13T14:03:39;11.38;;;4.97;;
9661;SDS011;24982;52.344;12.990;2023-10-13T14:06:46;12.82;;;5.15;;
9661;SDS011;24982;52.344;12.990;2023-10-13T14:09:50;11.40;;;5.03;;
9661;SDS011;24982;52.344;12.990;2023-10-13T14:12:53;11.77;;;5.05;;
9661;SDS011;24982;52.344;12.990;2023-10-13T14:15:54;11.68;;;5.25;;
9661;SDS011;24982;52.344;12.990;2023-10-13T14:19:05;8.35;;;5.20;;
9661;SDS011;24982;52.344;12.990;2023-10-13T14:22:11;10.88;;;5.30;;
9661;SDS011;24982;52.344;12.990;2023-10-13T14:25:13;8.82;;;5.43;;
9661;SDS011;24982;52.344;12.990;2023-10-13T14:28:16;7.32;;;4.97;;
9661;SDS011;24982;52.344;12.990;2023-10-13T14:31:18;10.32;;;5.38;;
9661;SDS011;24982;52.344;12.990;2023-10-13T14:34:22;11.80;;;5.50;;
9661;SDS011;24982;52.344;12.990;2023-10-13T14:37:26;9.15;;;5.50;;
9661;SDS011;24982;52.344;12.990;2023-10-13T14:40:31;10.48;;;5.22;;
9661;SDS011;24982;52.344;12.990;2023-10-13T14:43:33;9.98;;;5.00;;
9661;SDS011;24982;52.344;12.990;2023-10-13T14:46:35;13.45;;;5.50;;
9661;SDS011;24982;52.344;12.990;2023-10-13T14:49:40;9.73;;;5.32;;
9661;SDS011;24982;52.344;12.990;2023-10-13T14:52:42;10.10;;;5.40;;
9661;SDS011;24982;52.344;12.990;2023-10-13T14:55:44;11.07;;;5.40;;
9661;SDS011;24982;52.344;12.990;2023-10-13T14:58:46;12.88;;;5.57;;
9661;SDS011;24982;52.344;12.990;2023-10-13T15:01:49;8.93;;;5.70;;
9661;SDS011;24982;52.344;12.990;2023-10-13T15:04:53;8.25;;;5.32;;
9661;SDS011;24982;52.344;12.990;2023-10-13T15:07:55;11.73;;;5.72;;
9661;SDS011;24982;52.344;12.990;2023-10-13T15:11:07;13.88;;;5.90;;
9661;SDS011;24982;52.344;12.990;2023-10-13T15:14:12;8.80;;;5.45;;
9661;SDS011;24982;52.344;12.990;2023-10-13T15:17:14;11.82;;;6.05;;
9661;SDS011;24982;52.344;12.990;2023-10-13T15:20:18;10.63;;;5.57;;
9661;SDS011;24982;52.344;12.990;2023-10-13T15:23:19;12.63;;;5.28;;
9661;SDS011;24982;52.344;12.990;2023-10-13T15:26:25;14.02;;;5.90;;
9661;SDS011;24982;52.344;12.990;2023-10-13T15:29:27;9.32;;;5.85;;
9661;SDS011;24982;52.344;12.990;2023-10-13T15:32:35;11.35;;;5.68;;
9661;SDS011;24982;52.344;12.990;2023-10-13T15:35:45;9.63;;;5.57;;
9661;SDS011;24982;52.344;12.990;2023-10-13T15:38:47;7.97;;;5.03;;
9661;SDS011;24982;52.344;12.990;2023-10-13T15:41:50;13.02;;;6.10;;
9661;SDS011;24982;52.344;12.990;2023-10-13T15:44:53;8.88;;;5.85;;
9661;SDS011;24982;52.344;12.990;2023-10-13T15:47:56;11.60;;;5.80;;
9661;SDS011;24982;52.344;12.990;2023-10-13T15:50:59;12.13;;;5.95;;
9661;SDS011;24982;52.344;12.990;2023-10-13T15:54:04;14.88;;;5.30;;
9661;SDS011;24982;52.344;12.990;2023-10-13T15:57:11;10.00;;;5.40;;
9661;SDS011;24982;52.344;12.990;2023-10-13T16:00:17;10.20;;;5.82;;
9661;SDS011;24982;52.344;12.990;2023-10-13T16:03:25;9.00;;;5.72;;
9661;SDS011;24982;52.344;12.990;2023-10-13T16:06:31;10.35;;;5.75;;
9661;SDS011;24982;52.344;12.990;2023-10-13T16:09:33;9.70;;;5.47;;
9661;SDS011;24982;52.344;12.990;2023-10-13T16:12:36;7.65;;;5.05;;
9661;SDS011;24982;52.344;12.990;2023-10-13T16:15:38;9.77;;;5.30;;
9661;SDS011;24982;52.344;12.990;2023-10-13T16:18:42;8.30;;;5.22;;
9661;SDS011;24982;52.344;12.990;2023-10-13T16:21:46;10.65;;;5.32;;
9661;SDS011;24982;52.344;12.990;2023-10-13T16:24:48;10.18;;;5.22;;
9661;SDS011;24982;52.344;12.990;2023-10-13T16:27:51;9.63;;;5.22;;
9661;SDS011;24982;52.344;12.990;2023-10-13T16:30:53;12.50;;;5.47;;
9661;SDS011;24982;52.344;12.990;2023-10-13T16:33:56;9.80;;;5.03;;
9661;SDS011;24982;52.344;12.990;2023-10-13T16:37:00;10.48;;;5.22;;
9661;SDS011;24982;52.344;12.990;2023-10-13T16:40:05;11.30;;;5.50;;
9661;SDS011;24982;52.344;12.990;2023-10-13T16:43:08;8.13;;;5.00;;
9661;SDS011;24982;52.344;12.990;2023-10-13T16:46:12;9.57;;;5.20;;
9661;SDS011;24982;52.344;12.990;2023-10-13T16:49:15;8.57;;;4.95;;
9661;SDS011;24982;52.344;12.990;2023-10-13T16:52:18;9.23;;;4.85;;
9661;SDS011;24982;52.344;12.990;2023-10-13T16:55:20;10.57;;;5.15;;
9661;SDS011;24982;52.344;12.990;2023-10-13T16:58:24;8.60;;;5.07;;
9661;SDS011;24982;52.344;12.990;2023-10-13T17:01:27;12.35;;;5.18;;
9661;SDS011;24982;52.344;12.990;2023-10-13T17:04:29;7.20;;;4.80;;
9661;SDS011;24982;52.344;12.990;2023-10-13T17:07:32;8.18;;;5.05;;
9661;SDS011;24982;52.344;12.990;2023-10-13T17:10:36;10.68;;;5.35;;
9661;SDS011;24982;52.344;12.990;2023-10-13T17:13:39;5.63;;;4.38;;
9661;SDS011;24982;52.344;12.990;2023-10-13T17:16:42;9.38;;;4.70;;
9661;SDS011;24982;52.344;12.990;2023-10-13T17:19:44;7.38;;;4.88;;
9661;SDS011;24982;52.344;12.990;2023-10-13T17:22:51;13.52;;;5.00;;
9661;SDS011;24982;52.344;12.990;2023-10-13T17:25:56;7.97;;;4.90;;
9661;SDS011;24982;52.344;12.990;2023-10-13T17:28:58;13.05;;;5.25;;
9661;SDS011;24982;52.344;12.990;2023-10-13T17:32:02;13.90;;;5.10;;
9661;SDS011;24982;52.344;12.990;2023-10-13T17:35:08;9.25;;;5.18;;
9661;SDS011;24982;52.344;12.990;2023-10-13T17:38:13;10.73;;;4.72;;
9661;SDS011;24982;52.344;12.990;2023-10-13T17:41:15;9.65;;;4.40;;
9661;SDS011;24982;52.344;12.990;2023-10-13T17:44:17;6.50;;;4.80;;
9661;SDS011;24982;52.344;12.990;2023-10-13T17:47:19;7.75;;;4.90;;
9661;SDS011;24982;52.344;12.990;2023-10-13T17:50:22;7.57;;;4.63;;
9661;SDS011;24982;52.344;12.990;2023-10-13T17:53:25;11.00;;;4.97;;
9661;SDS011;24982;52.344;12.990;2023-10-13T17:56:34;12.18;;;5.03;;
9661;SDS011;24982;52.344;12.990;2023-10-13T17:59:37;13.15;;;5.32;;
9661;SDS011;24982;52.344;12.990;2023-10-13T18:02:39;10.80;;;5.20;;
9661;SDS011;24982;52.344;12.990;2023-10-13T18:05:42;9.50;;;5.10;;
9661;SDS011;24982;52.344;12.990;2023-10-13T18:08:48;12.20;;;4.97;;
9661;SDS011;24982;52.344;12.990;2023-10-13T18:11:51;5.72;;;4.55;;
9661;SDS011;24982;52.344;12.990;2023-10-13T18:14:55;9.45;;;5.07;;
9661;SDS011;24982;52.344;12.990;2023-10-13T18:17:57;8.70;;;5.10;;
9661;SDS011;24982;52.344;12.990;2023-10-13T18:21:02;12.02;;;5.35;;
9661;SDS011;24982;52.344;12.990;2023-10-13T18:24:09;7.30;;;4.75;;
9661;SDS011;24982;52.344;12.990;2023-10-13T18:27:11;6.43;;;5.30;;
9661;SDS011;24982;52.344;12.990;2023-10-13T18:30:13;12.82;;;5.32;;
9661;SDS011;24982;52.344;12.990;2023-10-13T18:33:15;9.57;;;5.22;;
9661;SDS011;24982;52.344;12.990;2023-10-13T18:36:20;10.10;;;5.13;;
9661;SDS011;24982;52.344;12.990;2023-10-13T18:39:25;9.43;;;5.13;;
9661;SDS011;24982;52.344;12.990;2023-10-13T18:42:34;9.60;;;4.75;;
9661;SDS011;24982;52.344;12.990;2023-10-13T18:45:41;6.22;;;4.90;;